Aérodrome :
LOGIN :

S'inscrire | Disclaimer

   EN    FR    IT 

 










Légende :    VFR   VFR Marginal   IFR   IFR Intensif   IFR Très Intensif
Visi : 
Plafond : 
>= 8 km
>= 3000ft
5 à 8 km
1000 à 3000 ft
1500m à 5 km
500 à 1000 ft
800 à 1500m
200 à 500 ft
< 800m
< 200 ft
Symboles :   Orages  Brouillard  Fortes neiges  Fortes précipitations  Vent > 20 kt
SIGMETs :   Divers  Orages  Givrage  Turbulence  Onde Orograph.  Cendres Volcan.






- Altitude de l'aérodrome : 144 ft
- Code IATA : PGF


LFMP - Perpignan

DERNIER METAR :
  • 202230Z AUTO 29006KT 6000 RA BKN020/// OVC031/// ///CB 05/03 Q1035

METARs EXPIRÉS :
  • 202200Z AUTO 28006KT 6000 RA OVC024/// ///TCU 05/03 Q1035
  • 202130Z AUTO 26005KT 210V290 7000 RA OVC027/// ///TCU 05/04 Q1035 TEMPO 1500 RA BR BKN003 SCT030TCU
  • 202100Z AUTO 28008KT 9999 -RA OVC032/// ///TCU 05/04 Q1035 TEMPO 1500 RA BR BKN003 SCT030TCU
  • 202030Z AUTO 27008KT 9999 -RA OVC033/// ///TCU 05/04 Q1035 TEMPO 1500 RA BR BKN003 SCT030TCU
  • 202000Z AUTO 25007KT 7000 RA BKN031/// OVC039/// ///TCU 05/04 Q1035 TEMPO 1500 RA BR BKN003 SCT030TCU BECMG 32010KT

TAF AMD TAF LFMP
Valide du 20 à 17h jusqu'au 21 à 15h UTC


201752Z 2017/2115 32010KT 9999 SCT030 BKN050
TEMPO 2017/2021 02020G30KT RA BKN012 SCT030TCU
BECMG 2021/2023 RA OVC012
PROB40
TEMPO 2021/2111 1500 RA BR BKN003 SCT030TCU
BECMG 2111/2113 07015KT -RA BKN020
ATIS : +33 4 68 63 75 12



MET'MAP, la Météo Aéronautique d'un coup d'oeil ! - Copyright ORBIFLY Décembre 2007 - Disclaimer

ORBIFLY MET'MAP TEAM :

Programmation & Développement : Alexandra Zaïnal
Sur une idée originale de : Baudouin d'Aumeries
Assistance à la programmation : Marc-Olivier Méhu
Soutien technique & logistique : Manuel Goepfert

Contact : metmap@orbifly.com




SOURCES & CREDITS :

   NOAA